createdAt,value
2018-05-06T00:04:08.317Z,93.80
2018-05-06T00:06:37.616Z,93.80
2018-05-06T00:09:05.917Z,93.70
2018-05-06T00:11:33.496Z,93.70
2018-05-06T00:14:01.597Z,93.70
2018-05-06T00:16:29.007Z,93.70
2018-05-06T00:18:59.347Z,93.70
2018-05-06T00:21:26.926Z,93.70
2018-05-06T00:23:54.447Z,93.50
2018-05-06T00:26:22.776Z,93.20
2018-05-06T00:28:50.226Z,93.20
2018-05-06T00:31:18.869Z,92.90
2018-05-06T00:33:46.872Z,92.50
2018-05-06T00:36:15.317Z,92.50
2018-05-06T00:38:44.449Z,92.40
2018-05-06T00:41:11.787Z,92.40
2018-05-06T00:43:39.297Z,92.20
2018-05-06T00:46:06.590Z,92.10
2018-05-06T00:48:48.947Z,91.90
2018-05-06T00:51:16.606Z,91.70
2018-05-06T00:53:44.266Z,91.80
2018-05-06T00:56:11.768Z,91.80
2018-05-06T00:58:40.076Z,91.70
2018-05-06T01:01:09.870Z,91.50
2018-05-06T01:03:37.286Z,91.50
2018-05-06T01:06:04.827Z,91.50
2018-05-06T01:08:32.647Z,91.10
2018-05-06T01:11:00.036Z,91.00
2018-05-06T01:13:27.277Z,91.00
2018-05-06T01:15:54.766Z,91.10
2018-05-06T01:18:29.397Z,91.10
2018-05-06T01:20:56.687Z,91.30
2018-05-06T01:23:24.207Z,91.50
2018-05-06T01:25:51.608Z,91.70
2018-05-06T01:28:20.856Z,91.80
2018-05-06T01:30:48.167Z,91.90
2018-05-06T01:33:15.596Z,92.00
2018-05-06T01:35:43.167Z,92.10
2018-05-06T01:38:10.608Z,92.20
2018-05-06T01:40:38.957Z,92.30
2018-05-06T01:43:07.846Z,92.30
2018-05-06T01:45:35.386Z,92.40
2018-05-06T01:48:02.797Z,92.70
2018-05-06T01:50:30.237Z,92.80
2018-05-06T01:52:57.687Z,92.70
2018-05-06T01:55:24.885Z,92.50
2018-05-06T01:57:52.526Z,92.30
2018-05-06T02:00:20.572Z,92.00
2018-05-06T02:02:48.058Z,92.00
2018-05-06T02:05:16.046Z,92.00
2018-05-06T02:07:45.607Z,91.70
2018-05-06T02:10:13.397Z,91.50
2018-05-06T02:12:40.917Z,91.40
2018-05-06T02:15:11.526Z,91.20
2018-05-06T02:17:39.697Z,91.00
2018-05-06T02:20:07.849Z,91.10
2018-05-06T02:22:36.106Z,92.20
2018-05-06T02:25:03.707Z,92.30
2018-05-06T02:27:32.997Z,92.30
2018-05-06T02:30:00.467Z,92.50
2018-05-06T02:32:28.376Z,92.50
2018-05-06T02:34:57.367Z,92.50
2018-05-06T02:37:24.907Z,92.40
2018-05-06T02:39:53.367Z,92.10
2018-05-06T02:42:23.017Z,91.80
2018-05-06T02:44:50.577Z,91.90
2018-05-06T02:47:17.997Z,92.00
2018-05-06T02:49:45.266Z,91.40
2018-05-06T02:52:12.597Z,90.60
2018-05-06T02:54:40.477Z,90.70
2018-05-06T02:57:07.832Z,91.20
2018-05-06T02:59:35.097Z,92.10
2018-05-06T03:02:02.687Z,92.50
2018-05-06T03:04:30.107Z,92.60
2018-05-06T03:06:58.377Z,91.30
2018-05-06T03:09:25.838Z,90.40
2018-05-06T03:11:53.719Z,88.20
2018-05-06T03:14:21.787Z,85.90
2018-05-06T03:16:50.239Z,84.90
2018-05-06T03:19:18.607Z,84.90
2018-05-06T03:21:46.098Z,83.80
2018-05-06T03:24:13.692Z,83.30
2018-05-06T03:26:40.927Z,81.80
2018-05-06T03:29:09.709Z,82.30
2018-05-06T03:31:38.028Z,83.50
2018-05-06T03:34:05.437Z,83.50
2018-05-06T03:36:33.467Z,84.00
2018-05-06T03:39:01.038Z,84.00
2018-05-06T03:41:28.567Z,87.10
2018-05-06T03:43:56.238Z,87.30
2018-05-06T03:46:23.477Z,84.30
2018-05-06T03:48:51.038Z,82.00
2018-05-06T03:51:18.617Z,80.60
2018-05-06T03:53:45.848Z,80.60
2018-05-06T03:59:56.818Z,81.90
2018-05-06T04:02:40.167Z,84.80
2018-05-06T04:05:07.526Z,85.40
2018-05-06T04:07:35.217Z,85.30
2018-05-06T04:10:02.761Z,84.80
2018-05-06T04:12:30.048Z,82.70
2018-05-06T04:14:57.436Z,80.50
2018-05-06T04:17:24.738Z,74.00
2018-05-06T04:19:53.056Z,70.10
2018-05-06T04:22:21.317Z,68.40
2018-05-06T04:24:49.716Z,65.60
2018-05-06T04:27:17.000Z,65.60
2018-05-06T04:29:44.508Z,63.40
2018-05-06T04:32:13.177Z,62.50
2018-05-06T04:34:40.447Z,61.00
2018-05-06T04:37:08.487Z,58.40
2018-05-06T04:39:36.777Z,58.40
2018-05-06T04:42:04.197Z,57.10
2018-05-06T04:44:33.657Z,56.30
2018-05-06T04:47:03.000Z,55.30
2018-05-06T04:49:30.739Z,55.30
2018-05-06T04:51:57.977Z,54.80
2018-05-06T04:54:25.447Z,53.10
2018-05-06T04:56:52.900Z,52.10
2018-05-06T04:59:21.918Z,52.40
2018-05-06T05:01:49.427Z,51.70
2018-05-06T05:04:16.718Z,51.00
2018-05-06T05:06:44.107Z,50.30
2018-05-06T05:09:11.526Z,50.70
2018-05-06T05:11:39.007Z,49.90
2018-05-06T05:14:06.327Z,49.70
2018-05-06T05:16:34.768Z,49.90
2018-05-06T05:19:02.068Z,48.80
2018-05-06T05:21:29.607Z,49.10
2018-05-06T05:23:57.847Z,48.40
2018-05-06T05:26:25.607Z,48.40
2018-05-06T05:28:52.938Z,48.30
2018-05-06T05:31:20.399Z,48.10
2018-05-06T05:33:48.058Z,47.70
2018-05-06T05:36:15.589Z,47.60
2018-05-06T05:38:44.417Z,46.80
2018-05-06T05:41:11.779Z,46.60
2018-05-06T05:43:39.367Z,46.00
2018-05-06T05:46:06.528Z,46.20
2018-05-06T05:48:34.707Z,46.80
2018-05-06T05:51:02.367Z,46.80
2018-05-06T05:53:30.677Z,47.30
2018-05-06T05:55:58.917Z,47.30
2018-05-06T05:58:27.490Z,48.20
2018-05-06T06:00:55.607Z,51.50
2018-05-06T06:03:22.957Z,51.50
2018-05-06T06:05:50.207Z,50.00
2018-05-06T06:08:17.918Z,50.90
2018-05-06T06:10:45.197Z,51.50
2018-05-06T06:13:14.227Z,51.50
2018-05-06T06:15:41.647Z,51.80
2018-05-06T06:18:09.927Z,52.90
2018-05-06T06:20:37.367Z,52.90
2018-05-06T06:23:06.428Z,51.40
2018-05-06T06:25:33.553Z,51.30
2018-05-06T06:28:01.018Z,48.20
2018-05-06T06:30:28.497Z,49.60
2018-05-06T06:32:55.645Z,49.60
2018-05-06T06:35:23.320Z,52.00
2018-05-06T06:37:50.789Z,50.00
2018-05-06T06:40:18.811Z,47.90
2018-05-06T06:42:46.270Z,47.90
2018-05-06T06:45:13.781Z,46.50
2018-05-06T06:47:41.989Z,45.70
2018-05-06T06:50:09.439Z,45.80
2018-05-06T06:52:36.862Z,47.10
2018-05-06T06:55:04.457Z,44.60
2018-05-06T06:57:32.129Z,46.10
2018-05-06T06:59:59.787Z,44.30
2018-05-06T07:02:27.307Z,44.00
2018-05-06T07:04:55.567Z,42.80
2018-05-06T07:07:23.017Z,42.70
2018-05-06T07:09:51.027Z,40.70
2018-05-06T07:12:18.684Z,41.80
2018-05-06T07:14:46.524Z,44.00
2018-05-06T07:17:14.730Z,43.90
2018-05-06T07:19:41.878Z,43.90
2018-05-06T07:22:09.351Z,44.70
2018-05-06T07:24:36.433Z,44.20
2018-05-06T07:27:03.553Z,46.50
2018-05-06T07:29:31.147Z,44.10
2018-05-06T07:31:58.969Z,44.80
2018-05-06T07:34:26.437Z,43.20
2018-05-06T07:36:53.677Z,42.30
2018-05-06T07:39:21.469Z,42.80
2018-05-06T07:41:48.927Z,41.80
2018-05-06T07:44:16.229Z,41.90
2018-05-06T07:46:43.777Z,41.20
2018-05-06T07:49:12.107Z,39.50
2018-05-06T07:51:39.627Z,39.40
2018-05-06T07:54:07.367Z,40.80
2018-05-06T07:56:34.907Z,40.00
2018-05-06T07:59:02.477Z,40.80
2018-05-06T08:01:30.077Z,41.10
2018-05-06T08:03:57.518Z,39.50
2018-05-06T08:06:25.738Z,39.60
2018-05-06T08:08:53.367Z,39.60
2018-05-06T08:11:20.828Z,40.70
2018-05-06T08:13:48.617Z,39.80
2018-05-06T08:16:16.180Z,38.90
2018-05-06T08:18:43.729Z,41.00
2018-05-06T08:21:11.358Z,39.70
2018-05-06T08:23:38.815Z,38.40
2018-05-06T08:26:06.552Z,42.10
2018-05-06T08:28:33.728Z,40.80
2018-05-06T08:31:01.348Z,38.80
2018-05-06T08:33:28.535Z,38.10
2018-05-06T08:35:56.107Z,39.80
2018-05-06T08:38:23.507Z,38.80
2018-05-06T08:40:51.438Z,39.60
2018-05-06T08:43:18.858Z,39.80
2018-05-06T08:45:46.293Z,38.10
2018-05-06T08:48:13.828Z,38.90
2018-05-06T08:50:41.718Z,40.40
2018-05-06T08:53:09.488Z,39.90
2018-05-06T08:55:36.788Z,41.00
2018-05-06T08:58:04.618Z,39.10
2018-05-06T09:00:31.978Z,38.50
2018-05-06T09:03:01.548Z,38.50
2018-05-06T09:05:29.667Z,38.50
2018-05-06T09:07:57.489Z,37.90
2018-05-06T09:10:24.977Z,37.30
2018-05-06T09:12:52.207Z,37.60
2018-05-06T09:15:20.038Z,38.50
2018-05-06T09:17:48.029Z,37.50
2018-05-06T09:20:15.467Z,36.30
2018-05-06T09:22:42.947Z,36.40
2018-05-06T09:25:10.148Z,36.60
2018-05-06T09:27:37.945Z,35.50
2018-05-06T09:30:05.757Z,34.30
2018-05-06T09:32:34.748Z,35.70
2018-05-06T09:35:02.608Z,35.70
2018-05-06T09:37:30.167Z,35.40
2018-05-06T09:39:58.807Z,35.30
2018-05-06T09:42:26.288Z,35.20
2018-05-06T09:44:53.748Z,35.40
2018-05-06T09:47:21.238Z,37.20
2018-05-06T09:49:49.479Z,36.40
2018-05-06T09:52:17.318Z,36.40
2018-05-06T09:54:44.828Z,36.20
2018-05-06T09:57:13.648Z,34.10
2018-05-06T09:59:41.417Z,34.10
2018-05-06T10:02:08.907Z,35.30
2018-05-06T10:04:36.898Z,33.90
2018-05-06T10:07:04.479Z,34.20
2018-05-06T10:09:32.118Z,35.20
2018-05-06T10:11:59.977Z,35.10
2018-05-06T10:14:27.443Z,34.40
2018-05-06T10:16:54.987Z,34.10
2018-05-06T10:19:23.172Z,34.80
2018-05-06T10:21:52.789Z,35.80
2018-05-06T10:24:21.517Z,35.70
2018-05-06T10:26:49.019Z,34.30
2018-05-06T10:29:16.488Z,33.30
2018-05-06T10:31:43.887Z,34.90
2018-05-06T10:34:11.687Z,34.40
2018-05-06T10:36:39.457Z,34.20
2018-05-06T10:39:08.628Z,34.60
2018-05-06T10:41:37.067Z,35.00
2018-05-06T10:44:05.573Z,33.70
2018-05-06T10:46:34.395Z,34.10
2018-05-06T10:49:04.092Z,33.30
2018-05-06T10:51:33.618Z,32.90
2018-05-06T10:54:01.419Z,32.80
2018-05-06T10:56:28.947Z,35.30
2018-05-06T10:58:56.317Z,34.00
2018-05-06T11:01:24.350Z,32.50
2018-05-06T11:03:53.110Z,32.60
2018-05-06T11:06:21.438Z,34.40
2018-05-06T11:08:52.287Z,34.40
2018-05-06T11:11:20.908Z,34.50
2018-05-06T11:13:48.587Z,34.50
2018-05-06T11:16:15.987Z,33.80
2018-05-06T11:18:43.691Z,32.90
2018-05-06T11:21:11.318Z,34.80
2018-05-06T11:23:39.547Z,34.00
2018-05-06T11:26:07.487Z,34.30
2018-05-06T11:28:36.047Z,33.00
2018-05-06T11:31:03.588Z,32.90
2018-05-06T11:33:32.237Z,32.40
2018-05-06T11:35:59.537Z,32.30
2018-05-06T11:38:26.987Z,33.80
2018-05-06T11:40:54.453Z,33.00
2018-05-06T11:43:22.206Z,33.60
2018-05-06T11:45:50.319Z,33.10
2018-05-06T11:48:17.817Z,33.10
2018-05-06T11:50:45.127Z,32.70
2018-05-06T11:53:12.857Z,32.00
2018-05-06T11:55:41.929Z,32.30
2018-05-06T11:58:10.007Z,32.30
2018-05-06T12:00:38.426Z,32.90
2018-05-06T12:03:06.146Z,32.90
2018-05-06T12:05:33.578Z,33.50
2018-05-06T12:08:01.910Z,31.50
2018-05-06T12:10:29.457Z,32.40
2018-05-06T12:12:56.878Z,31.80
2018-05-06T12:15:25.447Z,32.10
2018-05-06T12:17:53.161Z,32.00
2018-05-06T12:20:20.397Z,33.00
2018-05-06T12:22:49.947Z,33.80
2018-05-06T12:25:17.617Z,33.80
2018-05-06T12:27:46.746Z,33.30
2018-05-06T12:30:14.367Z,31.30
2018-05-06T12:32:41.917Z,32.00
2018-05-06T12:35:11.237Z,32.90
2018-05-06T12:37:38.519Z,32.50
2018-05-06T12:40:06.942Z,32.00
2018-05-06T12:42:34.672Z,32.00
2018-05-06T12:45:03.339Z,32.90
2018-05-06T12:47:31.648Z,33.40
2018-05-06T12:49:59.873Z,32.80
2018-05-06T12:52:27.781Z,32.70
2018-05-06T12:54:55.847Z,32.90
2018-05-06T12:57:24.184Z,32.40
2018-05-06T12:59:51.597Z,32.30
2018-05-06T13:02:19.951Z,31.80
2018-05-06T13:04:47.636Z,31.80
2018-05-06T13:07:15.919Z,31.00
2018-05-06T13:09:43.406Z,30.90
2018-05-06T13:12:11.236Z,31.60
2018-05-06T13:14:39.915Z,32.70
2018-05-06T13:17:08.256Z,32.80
2018-05-06T13:19:35.887Z,32.80
2018-05-06T13:22:03.397Z,31.90
2018-05-06T13:24:31.705Z,31.00
2018-05-06T13:26:59.277Z,31.00
2018-05-06T13:29:26.937Z,32.10
2018-05-06T13:31:54.612Z,32.50
2018-05-06T13:34:22.338Z,30.20
2018-05-06T13:36:50.506Z,30.40
2018-05-06T13:39:18.747Z,31.10
2018-05-06T13:41:46.238Z,31.10
2018-05-06T13:44:14.688Z,31.30
2018-05-06T13:46:42.127Z,31.20
2018-05-06T13:49:09.978Z,30.90
2018-05-06T13:51:37.477Z,32.30
2018-05-06T13:54:05.088Z,30.60
2018-05-06T13:56:32.528Z,36.30
2018-05-06T13:59:02.710Z,34.20
2018-05-06T14:01:30.123Z,34.60
2018-05-06T14:03:57.497Z,32.00
2018-05-06T14:06:24.897Z,33.30
2018-05-06T14:08:53.329Z,33.20
2018-05-06T14:11:21.057Z,33.10
2018-05-06T14:13:48.478Z,32.10
2018-05-06T14:16:16.708Z,32.60
2018-05-06T14:18:44.154Z,32.70
2018-05-06T14:21:11.739Z,31.80
2018-05-06T14:23:39.317Z,30.10
2018-05-06T14:26:06.907Z,30.60
2018-05-06T14:28:34.677Z,31.20
2018-05-06T14:31:02.877Z,31.50
2018-05-06T14:33:30.377Z,31.40
2018-05-06T14:35:57.869Z,30.90
2018-05-06T14:38:25.437Z,31.50
2018-05-06T14:40:52.907Z,31.10
2018-05-06T14:43:20.463Z,31.10
2018-05-06T14:45:47.952Z,30.00
2018-05-06T14:48:15.626Z,30.00
2018-05-06T14:50:43.267Z,30.80
2018-05-06T14:53:10.678Z,30.90
2018-05-06T14:55:38.351Z,31.70
2018-05-06T14:58:05.817Z,31.50
2018-05-06T15:00:33.727Z,30.80
2018-05-06T15:03:01.248Z,30.90
2018-05-06T15:05:28.877Z,30.70
2018-05-06T15:07:56.267Z,30.90
2018-05-06T15:10:23.870Z,30.90
2018-05-06T15:12:51.718Z,31.40
2018-05-06T15:15:19.597Z,31.20
2018-05-06T15:17:47.227Z,32.20
2018-05-06T15:20:14.887Z,30.80
2018-05-06T15:22:42.307Z,30.00
2018-05-06T15:25:09.860Z,30.00
2018-05-06T15:27:38.077Z,30.00
2018-05-06T15:30:05.937Z,30.00
2018-05-06T15:32:33.388Z,30.40
2018-05-06T15:35:00.816Z,30.20
2018-05-06T15:37:29.137Z,30.40
2018-05-06T15:39:56.537Z,30.40
2018-05-06T15:42:24.360Z,30.20
2018-05-06T15:44:51.898Z,30.20
2018-05-06T15:47:19.336Z,30.90
2018-05-06T15:49:46.840Z,30.00
2018-05-06T15:52:14.326Z,30.00
2018-05-06T15:54:42.717Z,31.40
2018-05-06T15:57:11.173Z,29.90
2018-05-06T15:59:38.607Z,30.00
2018-05-06T16:02:19.007Z,31.00
2018-05-06T16:04:47.307Z,31.10
2018-05-06T16:07:15.618Z,31.10
2018-05-06T16:09:42.827Z,30.70
2018-05-06T16:12:10.317Z,30.00
2018-05-06T16:14:37.767Z,31.10
2018-05-06T16:17:04.844Z,31.50
2018-05-06T16:19:32.415Z,31.60
2018-05-06T16:21:59.887Z,31.50
2018-05-06T16:24:28.337Z,30.10
2018-05-06T16:26:55.874Z,30.10
2018-05-06T16:29:23.427Z,30.30
2018-05-06T16:31:50.999Z,30.60
2018-05-06T16:34:18.152Z,31.00
2018-05-06T16:36:45.899Z,31.50
2018-05-06T16:39:13.537Z,32.10
2018-05-06T16:41:41.098Z,32.20
2018-05-06T16:44:08.719Z,33.00
2018-05-06T16:46:36.417Z,33.80
2018-05-06T16:49:04.130Z,32.90
2018-05-06T16:51:31.818Z,32.90
2018-05-06T16:53:59.387Z,33.40
2018-05-06T16:56:27.748Z,33.10
2018-05-06T16:58:55.268Z,33.10
2018-05-06T17:01:23.023Z,33.20
2018-05-06T17:03:50.779Z,33.50
2018-05-06T17:06:18.707Z,33.10
2018-05-06T17:08:47.207Z,34.00
2018-05-06T17:11:15.789Z,34.40
2018-05-06T17:13:44.048Z,33.30
2018-05-06T17:16:15.257Z,32.70
2018-05-06T17:18:43.735Z,32.70
2018-05-06T17:23:52.370Z,32.90
2018-05-06T17:26:21.067Z,32.70
2018-05-06T17:28:48.645Z,32.80
2018-05-06T17:31:17.076Z,33.30
2018-05-06T17:33:44.506Z,33.00
2018-05-06T17:36:13.326Z,33.50
2018-05-06T17:38:40.935Z,33.50
2018-05-06T17:41:08.726Z,33.50
2018-05-06T17:43:36.126Z,33.10
2018-05-06T17:46:03.816Z,33.60
2018-05-06T17:48:31.477Z,34.00
2018-05-06T17:50:59.046Z,33.60
2018-05-06T17:53:27.386Z,34.50
2018-05-06T17:55:55.127Z,34.00
2018-05-06T17:58:22.676Z,34.20
2018-05-06T18:00:50.295Z,34.40
2018-05-06T18:03:18.278Z,35.30
2018-05-06T18:05:46.525Z,36.20
2018-05-06T18:08:14.185Z,36.20
2018-05-06T18:10:41.655Z,37.10
2018-05-06T18:13:09.226Z,37.30
2018-05-06T18:15:37.665Z,39.90
2018-05-06T18:18:05.265Z,39.90
2018-05-06T18:20:33.736Z,43.60
2018-05-06T18:23:03.365Z,43.60
2018-05-06T18:25:32.316Z,44.00
2018-05-06T18:28:00.505Z,45.70
2018-05-06T18:30:30.347Z,45.50
2018-05-06T18:32:57.915Z,45.70
2018-05-06T18:35:25.625Z,45.50
2018-05-06T18:40:28.176Z,46.00
2018-05-06T18:42:55.889Z,45.90
2018-05-06T18:45:24.065Z,45.70
2018-05-06T18:47:51.825Z,44.20
2018-05-06T18:50:23.346Z,44.30
2018-05-06T18:52:51.286Z,43.30
2018-05-06T18:55:18.895Z,43.30
2018-05-06T18:57:47.976Z,42.70
2018-05-06T19:00:16.086Z,42.70
2018-05-06T19:02:44.172Z,42.10
2018-05-06T19:05:12.166Z,42.30
2018-05-06T19:07:39.566Z,42.70
2018-05-06T19:10:09.325Z,42.40
2018-05-06T19:12:39.425Z,42.50
2018-05-06T19:15:09.636Z,42.80
2018-05-06T19:17:38.937Z,42.40
2018-05-06T19:20:09.806Z,42.40
2018-05-06T19:22:38.717Z,42.70
2018-05-06T19:25:10.536Z,42.60
2018-05-06T19:27:37.876Z,42.50
2018-05-06T19:30:06.008Z,42.70
2018-05-06T19:32:33.607Z,42.70
2018-05-06T19:35:06.890Z,43.10
2018-05-06T19:37:37.965Z,43.00
2018-05-06T19:42:51.016Z,43.20
2018-05-06T19:45:20.627Z,43.10
2018-05-06T19:47:48.616Z,42.50
2018-05-06T19:50:16.116Z,42.60
2018-05-06T19:52:48.895Z,43.10
2018-05-06T19:55:19.120Z,43.00
2018-05-06T19:57:48.176Z,43.10
2018-05-06T20:00:15.526Z,43.00
2018-05-06T20:02:44.149Z,43.10
2018-05-06T20:05:12.696Z,43.90
2018-05-06T20:07:42.185Z,43.90
2018-05-06T20:10:13.066Z,44.10
2018-05-06T20:12:40.440Z,44.50
2018-05-06T20:15:13.116Z,44.50
2018-05-06T20:17:41.389Z,45.00
2018-05-06T20:20:09.636Z,45.00
2018-05-06T20:22:38.088Z,45.40
2018-05-06T20:25:07.088Z,46.40
2018-05-06T20:27:34.598Z,45.80
2018-05-06T20:30:02.286Z,45.90
2018-05-06T20:32:31.286Z,45.90
2018-05-06T20:34:58.755Z,46.10
2018-05-06T20:37:29.645Z,46.50
2018-05-06T20:39:57.405Z,46.50
2018-05-06T20:42:27.185Z,46.80
2018-05-06T20:44:57.226Z,47.00
2018-05-06T20:47:27.815Z,47.50
2018-05-06T20:49:56.817Z,47.70
2018-05-06T20:52:24.685Z,48.10
2018-05-06T20:54:52.976Z,48.10
2018-05-06T20:57:23.515Z,48.30
2018-05-06T20:59:52.595Z,48.80
2018-05-06T21:02:22.596Z,49.20
2018-05-06T21:04:50.365Z,49.20
2018-05-06T21:07:19.245Z,49.80
2018-05-06T21:09:47.946Z,50.00
2018-05-06T21:12:15.676Z,50.50
2018-05-06T21:14:43.218Z,50.60
2018-05-06T21:17:11.025Z,51.30
2018-05-06T21:19:39.795Z,51.90
2018-05-06T21:22:09.216Z,52.40
2018-05-06T21:24:40.185Z,52.70
2018-05-06T21:27:09.806Z,52.90
2018-05-06T21:29:37.380Z,53.30
2018-05-06T21:32:05.570Z,53.50
2018-05-06T21:34:35.296Z,53.50
2018-05-06T21:37:03.320Z,53.70
2018-05-06T21:39:33.646Z,53.90
2018-05-06T21:42:01.927Z,54.10
2018-05-06T21:44:29.486Z,54.00
2018-05-06T21:46:57.635Z,54.40
2018-05-06T21:49:25.398Z,54.60
2018-05-06T21:51:54.047Z,55.00
2018-05-06T21:54:22.618Z,55.00
2018-05-06T21:56:50.176Z,55.30
2018-05-06T21:59:17.726Z,55.40
2018-05-06T22:01:45.159Z,55.80
2018-05-06T22:04:13.078Z,56.20
2018-05-06T22:06:40.868Z,56.40
2018-05-06T22:09:08.406Z,56.60
2018-05-06T22:11:35.885Z,57.00
2018-05-06T22:14:03.615Z,57.00
2018-05-06T22:16:31.465Z,57.10
2018-05-06T22:19:01.450Z,57.00
2018-05-06T22:21:29.836Z,57.10
2018-05-06T22:23:58.895Z,57.30
2018-05-06T22:26:27.126Z,56.80
2018-05-06T22:28:54.606Z,56.80
2018-05-06T22:31:22.086Z,56.80
2018-05-06T22:33:49.616Z,56.60
2018-05-06T22:36:18.696Z,57.10
2018-05-06T22:38:46.335Z,56.80
2018-05-06T22:41:14.985Z,56.60
2018-05-06T22:43:42.426Z,56.60
2018-05-06T22:46:10.176Z,56.80
2018-05-06T22:48:37.575Z,56.50
2018-05-06T22:51:05.669Z,56.50
2018-05-06T22:53:33.216Z,56.80
2018-05-06T22:56:00.704Z,56.80
2018-05-06T22:58:28.315Z,56.50
2018-05-06T23:00:57.585Z,56.70
2018-05-06T23:03:25.275Z,57.10
2018-05-06T23:05:53.074Z,57.20
2018-05-06T23:08:20.535Z,57.60
2018-05-06T23:10:48.555Z,58.00
2018-05-06T23:13:17.716Z,58.70
2018-05-06T23:15:48.368Z,58.70
2018-05-06T23:18:18.595Z,58.90
2018-05-06T23:20:48.318Z,59.20
2018-05-06T23:23:21.695Z,59.30
2018-05-06T23:25:51.274Z,59.60
2018-05-06T23:28:19.075Z,59.70
2018-05-06T23:30:46.546Z,59.60
2018-05-06T23:33:14.225Z,59.10
2018-05-06T23:35:41.645Z,59.10
2018-05-06T23:38:09.016Z,59.00
2018-05-06T23:40:36.568Z,59.10
2018-05-06T23:43:06.215Z,59.10
2018-05-06T23:45:36.915Z,58.80
2018-05-06T23:48:06.516Z,58.80
2018-05-06T23:50:35.458Z,58.80
2018-05-06T23:53:03.605Z,58.80
2018-05-06T23:55:37.755Z,58.60
2018-05-06T23:58:05.725Z,58.60
